createdAt,value
2018-10-21T00:00:42.087Z,25.27
2018-10-21T00:03:11.753Z,26.17
2018-10-21T00:05:40.837Z,27.53
2018-10-21T00:08:10.380Z,27.00
2018-10-21T00:10:39.865Z,24.80
2018-10-21T00:13:09.157Z,31.00
2018-10-21T00:15:38.747Z,26.70
2018-10-21T00:18:08.217Z,23.33
2018-10-21T00:20:37.493Z,25.50
2018-10-21T00:23:07.027Z,26.03
2018-10-21T00:25:36.294Z,24.40
2018-10-21T00:28:05.451Z,30.43
2018-10-21T00:30:34.733Z,24.57
2018-10-21T00:33:05.098Z,29.90
2018-10-21T00:35:34.848Z,29.35
2018-10-21T00:38:04.937Z,33.20
2018-10-21T00:40:34.199Z,33.90
2018-10-21T00:43:03.720Z,30.47
2018-10-21T00:45:33.009Z,33.53
2018-10-21T00:48:02.493Z,27.43
2018-10-21T00:50:32.008Z,32.77
2018-10-21T00:53:01.264Z,29.50
2018-10-21T00:55:30.532Z,31.40
2018-10-21T00:58:00.028Z,31.40
2018-10-21T01:00:28.948Z,29.60
2018-10-21T01:02:58.312Z,32.23
2018-10-21T01:05:27.970Z,34.00
2018-10-21T01:07:57.224Z,31.33
2018-10-21T01:10:26.648Z,26.68
2018-10-21T01:12:56.061Z,26.10
2018-10-21T01:15:24.984Z,31.90
2018-10-21T01:17:53.916Z,29.67
2018-10-21T01:20:23.292Z,28.53
2018-10-21T01:22:53.079Z,28.93
2018-10-21T01:25:22.344Z,38.13
2018-10-21T01:27:52.104Z,33.45
2018-10-21T01:30:21.120Z,35.70
2018-10-21T01:32:50.377Z,31.63
2018-10-21T01:35:20.009Z,37.10
2018-10-21T01:37:49.297Z,39.13
2018-10-21T01:40:21.537Z,39.30
2018-10-21T01:42:51.101Z,42.73
2018-10-21T01:45:20.366Z,38.57
2018-10-21T01:47:50.077Z,48.40
2018-10-21T01:50:19.371Z,42.87
2018-10-21T01:52:49.114Z,45.30
2018-10-21T01:55:18.666Z,42.90
2018-10-21T01:57:50.064Z,43.17
2018-10-21T02:00:19.676Z,46.28
2018-10-21T02:02:49.105Z,42.53
2018-10-21T02:05:18.220Z,44.77
2018-10-21T02:07:47.476Z,45.50
2018-10-21T02:10:16.749Z,43.50
2018-10-21T02:12:46.348Z,42.00
2018-10-21T02:15:15.696Z,36.97
2018-10-21T02:17:45.313Z,40.20
2018-10-21T02:20:14.659Z,35.87
2018-10-21T02:22:44.164Z,35.83
2018-10-21T02:25:25.615Z,33.90
2018-10-21T02:28:07.198Z,39.53
2018-10-21T02:30:49.051Z,33.90
2018-10-21T02:33:31.085Z,40.60
2018-10-21T02:36:03.902Z,37.30
2018-10-21T02:38:33.201Z,37.77
2018-10-21T02:41:13.634Z,47.23
2018-10-21T02:43:42.873Z,49.33
2018-10-21T02:46:12.288Z,52.25
2018-10-21T02:48:41.761Z,53.17
2018-10-21T02:51:11.399Z,46.58
2018-10-21T02:53:41.080Z,52.65
2018-10-21T02:56:10.298Z,55.97
2018-10-21T02:58:39.396Z,52.03
2018-10-21T03:01:08.580Z,56.40
2018-10-21T03:03:37.838Z,55.40
2018-10-21T03:06:06.872Z,53.50
2018-10-21T03:08:36.318Z,52.93
2018-10-21T03:11:05.073Z,58.83
2018-10-21T03:13:34.548Z,57.50
2018-10-21T03:16:03.821Z,59.97
2018-10-21T03:18:33.036Z,65.03
2018-10-21T03:21:02.163Z,52.13
2018-10-21T03:23:31.514Z,58.40
2018-10-21T03:26:01.285Z,61.50
2018-10-21T03:28:30.548Z,57.80
2018-10-21T03:30:59.490Z,50.83
2018-10-21T03:33:28.842Z,52.30
2018-10-21T03:35:58.007Z,60.70
2018-10-21T03:38:27.396Z,50.47
2018-10-21T03:40:56.853Z,56.83
2018-10-21T03:43:26.020Z,54.30
2018-10-21T03:45:55.526Z,55.80
2018-10-21T03:48:24.964Z,61.43
2018-10-21T03:50:54.380Z,63.13
2018-10-21T03:53:23.708Z,62.70
2018-10-21T03:55:53.258Z,76.12
2018-10-21T03:58:22.685Z,68.03
2018-10-21T04:00:51.940Z,64.00
2018-10-21T04:03:21.762Z,58.23
2018-10-21T04:05:51.161Z,63.87
2018-10-21T04:08:20.680Z,59.20
2018-10-21T04:10:50.399Z,50.03
2018-10-21T04:13:19.965Z,47.23
2018-10-21T04:15:49.265Z,48.35
2018-10-21T04:18:18.801Z,45.33
2018-10-21T04:20:48.348Z,46.83
2018-10-21T04:23:17.701Z,47.83
2018-10-21T04:25:46.980Z,40.70
2018-10-21T04:28:16.750Z,41.92
2018-10-21T04:30:46.196Z,42.33
2018-10-21T04:33:15.501Z,37.83
2018-10-21T04:35:44.781Z,32.43
2018-10-21T04:38:28.113Z,46.53
2018-10-21T04:40:57.368Z,42.30
2018-10-21T04:43:26.465Z,42.10
2018-10-21T04:45:55.962Z,40.90
2018-10-21T04:48:25.609Z,44.33
2018-10-21T04:50:54.867Z,39.70
2018-10-21T04:53:24.292Z,36.53
2018-10-21T04:55:54.136Z,30.23
2018-10-21T04:58:23.974Z,36.53
2018-10-21T05:00:53.236Z,43.80
2018-10-21T05:03:22.784Z,33.03
2018-10-21T05:05:52.073Z,34.30
2018-10-21T05:08:21.613Z,32.42
2018-10-21T05:10:50.884Z,39.30
2018-10-21T05:13:20.445Z,35.87
2018-10-21T05:15:49.793Z,40.83
2018-10-21T05:18:20.817Z,35.90
2018-10-21T05:20:50.271Z,34.93
2018-10-21T05:23:20.195Z,35.27
2018-10-21T05:25:49.818Z,35.23
2018-10-21T05:28:19.569Z,35.33
2018-10-21T05:30:50.579Z,33.23
2018-10-21T05:33:23.167Z,37.67
2018-10-21T05:35:52.777Z,36.40
2018-10-21T05:38:22.045Z,42.30
2018-10-21T05:40:51.838Z,41.63
2018-10-21T05:43:21.383Z,53.30
2018-10-21T05:45:51.767Z,53.02
2018-10-21T05:48:21.046Z,45.33
2018-10-21T05:50:50.296Z,48.57
2018-10-21T05:53:20.073Z,52.67
2018-10-21T05:55:49.836Z,49.08
2018-10-21T05:58:19.554Z,52.43
2018-10-21T06:00:48.969Z,56.77
2018-10-21T06:03:23.653Z,50.77
2018-10-21T06:05:53.152Z,53.63
2018-10-21T06:08:22.383Z,47.37
2018-10-21T06:10:51.905Z,51.63
2018-10-21T06:13:21.164Z,46.18
2018-10-21T06:15:50.188Z,56.90
2018-10-21T06:18:19.661Z,52.83
2018-10-21T06:20:48.684Z,54.00
2018-10-21T06:23:18.152Z,60.60
2018-10-21T06:25:47.937Z,53.20
2018-10-21T06:28:17.299Z,53.50
2018-10-21T06:30:46.777Z,53.13
2018-10-21T06:33:16.107Z,54.80
2018-10-21T06:35:45.784Z,54.45
2018-10-21T06:38:15.422Z,58.63
2018-10-21T06:40:45.104Z,53.90
2018-10-21T06:43:14.029Z,53.05
2018-10-21T06:45:43.381Z,55.00
2018-10-21T06:48:13.068Z,57.98
2018-10-21T06:50:42.535Z,47.67
2018-10-21T06:53:12.103Z,48.28
2018-10-21T06:55:41.357Z,48.07
2018-10-21T06:58:10.907Z,46.73
2018-10-21T07:00:40.203Z,47.93
2018-10-21T07:03:09.447Z,49.93
2018-10-21T07:05:38.386Z,53.63
2018-10-21T07:08:08.213Z,49.13
2018-10-21T07:10:37.497Z,52.60
2018-10-21T07:13:07.255Z,51.93
2018-10-21T07:15:36.603Z,52.77
2018-10-21T07:18:06.476Z,45.20
2018-10-21T07:20:43.413Z,51.53
2018-10-21T07:23:12.968Z,53.73
2018-10-21T07:25:42.219Z,48.20
2018-10-21T07:28:12.328Z,47.38
2018-10-21T07:30:42.042Z,46.53
2018-10-21T07:33:11.372Z,52.10
2018-10-21T07:35:40.949Z,44.15
2018-10-21T07:38:10.301Z,50.10
2018-10-21T07:40:39.240Z,52.47
2018-10-21T07:43:08.526Z,52.07
2018-10-21T07:45:38.129Z,43.67
2018-10-21T07:48:07.420Z,46.77
2018-10-21T07:50:36.991Z,48.50
2018-10-21T07:53:06.401Z,48.23
2018-10-21T07:55:35.702Z,45.17
2018-10-21T07:58:06.440Z,43.52
2018-10-21T08:00:36.181Z,48.80
2018-10-21T08:03:05.878Z,45.10
2018-10-21T08:08:37.588Z,46.60
2018-10-21T08:11:07.333Z,48.05
2018-10-21T08:13:36.652Z,45.77
2018-10-21T08:16:06.596Z,45.53
2018-10-21T08:18:36.167Z,44.43
2018-10-21T08:21:06.206Z,46.80
2018-10-21T08:23:35.317Z,46.20
2018-10-21T08:26:04.393Z,48.23
2018-10-21T08:28:33.837Z,43.17
2018-10-21T08:31:02.863Z,48.53
2018-10-21T08:33:35.484Z,45.10
2018-10-21T08:36:05.816Z,47.93
2018-10-21T08:38:35.249Z,45.67
2018-10-21T08:41:04.558Z,46.17
2018-10-21T08:43:34.113Z,41.68
2018-10-21T08:46:03.463Z,42.00
2018-10-21T08:48:33.192Z,42.78
2018-10-21T08:51:02.476Z,39.17
2018-10-21T08:53:31.740Z,49.50
2018-10-21T08:56:01.259Z,44.57
2018-10-21T08:58:30.237Z,45.37
2018-10-21T09:00:59.244Z,39.10
2018-10-21T09:03:28.657Z,37.77
2018-10-21T09:05:58.293Z,42.17
2018-10-21T09:08:27.565Z,41.70
2018-10-21T09:10:56.849Z,37.50
2018-10-21T09:13:26.525Z,37.87
2018-10-21T09:15:55.356Z,41.93
2018-10-21T09:18:25.103Z,37.53
2018-10-21T09:20:54.581Z,44.73
2018-10-21T09:23:24.415Z,36.38
2018-10-21T09:25:53.683Z,37.00
2018-10-21T09:28:22.909Z,44.93
2018-10-21T09:30:52.373Z,36.13
2018-10-21T09:33:21.732Z,34.13
2018-10-21T09:36:01.673Z,36.10
2018-10-21T09:38:31.224Z,33.65
2018-10-21T09:41:00.705Z,30.47
2018-10-21T09:43:30.282Z,36.42
2018-10-21T09:45:59.576Z,43.60
2018-10-21T09:48:29.280Z,39.27
2018-10-21T09:50:58.531Z,36.50
2018-10-21T09:53:27.809Z,40.00
2018-10-21T09:55:57.361Z,37.53
2018-10-21T09:58:26.882Z,36.83
2018-10-21T10:00:56.227Z,39.63
2018-10-21T10:03:25.652Z,35.77
2018-10-21T10:05:54.936Z,37.43
2018-10-21T10:08:24.417Z,37.33
2018-10-21T10:10:53.559Z,32.30
2018-10-21T10:13:23.316Z,35.52
2018-10-21T10:15:52.806Z,32.87
2018-10-21T10:18:22.395Z,39.65
2018-10-21T10:20:51.657Z,54.27
2018-10-21T10:23:20.961Z,37.88
2018-10-21T10:25:50.420Z,30.88
2018-10-21T10:28:19.923Z,33.40
2018-10-21T10:30:49.445Z,33.67
2018-10-21T10:33:18.726Z,34.07
2018-10-21T10:35:47.998Z,33.77
2018-10-21T10:38:17.678Z,31.57
2018-10-21T10:40:47.441Z,31.48
2018-10-21T10:43:16.629Z,35.83
2018-10-21T10:45:46.333Z,29.67
2018-10-21T10:48:15.889Z,34.27
2018-10-21T10:50:45.452Z,30.15
2018-10-21T10:53:14.711Z,28.42
2018-10-21T10:55:43.731Z,27.73
2018-10-21T10:58:13.315Z,29.77
2018-10-21T11:00:42.737Z,28.43
2018-10-21T11:03:12.287Z,30.33
2018-10-21T11:05:41.585Z,27.97
2018-10-21T11:08:10.271Z,24.43
2018-10-21T11:10:39.673Z,27.33
2018-10-21T11:13:09.196Z,27.80
2018-10-21T11:15:38.602Z,27.30
2018-10-21T11:18:07.869Z,27.97
2018-10-21T11:20:37.445Z,28.65
2018-10-21T11:23:06.761Z,30.53
2018-10-21T11:25:36.557Z,30.17
2018-10-21T11:28:06.680Z,28.95
2018-10-21T11:30:36.073Z,28.40
2018-10-21T11:33:06.661Z,31.95
2018-10-21T11:35:35.941Z,27.33
2018-10-21T11:38:05.954Z,27.50
2018-10-21T11:40:35.509Z,28.15
2018-10-21T11:43:04.556Z,27.77
2018-10-21T11:45:34.039Z,27.80
2018-10-21T11:48:03.350Z,28.37
2018-10-21T11:50:32.629Z,27.03
2018-10-21T11:53:01.478Z,26.60
2018-10-21T11:55:30.628Z,26.40
2018-10-21T11:57:59.936Z,24.03
2018-10-21T12:00:29.649Z,25.07
2018-10-21T12:02:58.957Z,26.87
2018-10-21T12:05:28.606Z,25.17
2018-10-21T12:07:57.632Z,21.33
2018-10-21T12:10:26.893Z,23.40
2018-10-21T12:12:56.208Z,24.23
2018-10-21T12:15:25.800Z,24.27
2018-10-21T12:17:55.069Z,23.83
2018-10-21T12:20:28.036Z,26.23
2018-10-21T12:22:57.359Z,24.90
2018-10-21T12:25:26.537Z,21.80
2018-10-21T12:27:55.989Z,23.13
2018-10-21T12:30:25.449Z,22.83
2018-10-21T12:32:54.879Z,21.77
2018-10-21T12:35:23.817Z,21.07
2018-10-21T12:37:53.085Z,21.67
2018-10-21T12:40:22.361Z,21.30
2018-10-21T12:42:54.013Z,14.27
2018-10-21T12:45:24.049Z,12.70
2018-10-21T12:47:53.512Z,15.43
2018-10-21T12:50:23.084Z,16.82
2018-10-21T12:52:52.410Z,15.93
2018-10-21T12:55:22.014Z,12.23
2018-10-21T12:57:51.285Z,14.60
2018-10-21T13:00:21.098Z,16.17
2018-10-21T13:02:50.046Z,17.13
2018-10-21T13:05:19.830Z,17.30
2018-10-21T13:07:49.142Z,17.97
2018-10-21T13:10:18.513Z,18.27
2018-10-21T13:12:48.088Z,15.50
2018-10-21T13:15:17.260Z,16.23
2018-10-21T13:17:46.638Z,15.00
2018-10-21T13:20:16.208Z,14.10
2018-10-21T13:22:45.563Z,13.53
2018-10-21T13:25:15.244Z,14.63
2018-10-21T13:27:45.020Z,15.00
2018-10-21T13:30:14.647Z,16.53
2018-10-21T13:32:46.632Z,15.50
2018-10-21T13:35:16.632Z,15.10
2018-10-21T13:37:46.072Z,15.67
2018-10-21T13:40:15.096Z,15.50
2018-10-21T13:42:44.289Z,16.00
2018-10-21T13:45:13.611Z,17.17
2018-10-21T13:47:43.028Z,16.07
2018-10-21T13:50:12.332Z,15.57
2018-10-21T13:52:41.729Z,14.57
2018-10-21T13:55:11.338Z,15.43
2018-10-21T13:57:41.130Z,14.83
2018-10-21T14:00:10.094Z,14.77
2018-10-21T14:02:39.591Z,14.97
2018-10-21T14:05:08.878Z,13.90
2018-10-21T14:07:38.217Z,13.40
2018-10-21T14:10:07.486Z,13.47
2018-10-21T14:12:36.825Z,14.83
2018-10-21T14:15:07.157Z,14.63
2018-10-21T14:17:36.611Z,14.17
2018-10-21T14:20:07.106Z,13.62
2018-10-21T14:22:36.398Z,13.30
2018-10-21T14:25:05.258Z,14.20
2018-10-21T14:27:34.685Z,12.60
2018-10-21T14:30:03.908Z,12.47
2018-10-21T14:32:33.398Z,13.57
2018-10-21T14:35:02.746Z,13.43
2018-10-21T14:37:32.249Z,11.83
2018-10-21T14:40:02.293Z,13.67
2018-10-21T14:42:31.281Z,12.87
2018-10-21T14:45:00.602Z,12.90
2018-10-21T14:47:30.174Z,13.60
2018-10-21T14:49:59.187Z,12.70
2018-10-21T14:52:28.535Z,12.63
2018-10-21T14:54:58.194Z,13.70
2018-10-21T14:57:27.704Z,12.00
2018-10-21T14:59:57.051Z,11.70
2018-10-21T15:02:26.582Z,11.10
2018-10-21T15:04:55.892Z,11.67
2018-10-21T15:07:25.494Z,11.20
2018-10-21T15:09:54.861Z,10.63
2018-10-21T15:12:24.607Z,9.85
2018-10-21T15:14:53.922Z,9.83
2018-10-21T15:17:23.520Z,9.90
2018-10-21T15:19:52.805Z,11.73
2018-10-21T15:22:22.181Z,8.93
2018-10-21T15:24:51.653Z,10.43
2018-10-21T15:27:21.486Z,9.83
2018-10-21T15:29:50.546Z,10.57
2018-10-21T15:32:20.539Z,8.13
2018-10-21T15:34:49.926Z,9.87
2018-10-21T15:37:19.180Z,9.03
2018-10-21T15:39:48.555Z,10.33
2018-10-21T15:42:18.245Z,9.27
2018-10-21T15:44:47.492Z,10.70
2018-10-21T15:47:17.052Z,10.23
2018-10-21T15:49:46.355Z,11.23
2018-10-21T15:52:15.945Z,9.90
2018-10-21T15:54:45.649Z,9.43
2018-10-21T15:57:15.477Z,9.18
2018-10-21T15:59:44.566Z,10.07
2018-10-21T16:02:13.616Z,23.38
2018-10-21T16:04:43.246Z,10.33
2018-10-21T16:07:12.669Z,10.20
2018-10-21T16:09:42.277Z,11.53
2018-10-21T16:12:11.671Z,15.95
2018-10-21T16:14:41.302Z,10.32
2018-10-21T16:17:10.964Z,24.53
2018-10-21T16:19:40.549Z,13.63
2018-10-21T16:22:10.100Z,9.93
2018-10-21T16:24:40.377Z,10.63
2018-10-21T16:27:09.687Z,11.53
2018-10-21T16:29:39.457Z,11.37
2018-10-21T16:32:09.162Z,9.07
2018-10-21T16:34:38.225Z,10.07
2018-10-21T16:37:07.874Z,9.63
2018-10-21T16:39:37.422Z,14.30
2018-10-21T16:42:08.010Z,16.62
2018-10-21T16:44:37.433Z,13.63
2018-10-21T16:47:07.747Z,17.25
2018-10-21T16:49:37.033Z,13.93
2018-10-21T16:52:07.212Z,15.30
2018-10-21T16:54:36.564Z,14.30
2018-10-21T16:57:12.760Z,15.53
2018-10-21T16:59:42.485Z,11.70
2018-10-21T17:02:11.861Z,12.65
2018-10-21T17:04:41.557Z,13.17
2018-10-21T17:07:10.911Z,11.50
2018-10-21T17:09:40.789Z,11.47
2018-10-21T17:12:09.992Z,14.13
2018-10-21T17:14:39.220Z,12.90
2018-10-21T17:17:08.845Z,17.30
2018-10-21T17:19:38.541Z,13.60
2018-10-21T17:22:08.057Z,13.50
2018-10-21T17:24:37.481Z,12.67
2018-10-21T17:27:07.576Z,11.63
2018-10-21T17:29:36.876Z,11.37
2018-10-21T17:32:06.130Z,14.30
2018-10-21T17:34:35.684Z,11.20
2018-10-21T17:37:04.397Z,11.97
2018-10-21T17:39:33.835Z,12.67
2018-10-21T17:42:03.433Z,13.13
2018-10-21T17:44:33.046Z,14.17
2018-10-21T17:47:02.637Z,12.80
2018-10-21T17:49:31.897Z,13.47
2018-10-21T17:52:01.564Z,12.30
2018-10-21T17:54:30.973Z,14.03
2018-10-21T17:57:00.553Z,11.77
2018-10-21T17:59:29.875Z,214.03
2018-10-21T18:01:59.508Z,45.90
2018-10-21T18:04:30.107Z,14.93
2018-10-21T18:06:59.977Z,13.67
2018-10-21T18:09:29.615Z,14.97
2018-10-21T18:11:59.065Z,13.13
2018-10-21T18:14:28.673Z,12.77
2018-10-21T18:16:58.021Z,15.10
2018-10-21T18:19:27.543Z,13.07
2018-10-21T18:21:56.865Z,14.70
2018-10-21T18:24:26.593Z,13.20
2018-10-21T18:26:55.859Z,12.60
2018-10-21T18:29:25.901Z,13.30
2018-10-21T18:31:54.897Z,16.73
2018-10-21T18:34:24.412Z,11.70
2018-10-21T18:36:53.945Z,12.17
2018-10-21T18:39:23.700Z,13.48
2018-10-21T18:41:53.002Z,13.87
2018-10-21T18:44:22.248Z,12.45
2018-10-21T18:46:51.787Z,20.10
2018-10-21T18:49:21.300Z,13.40
2018-10-21T18:51:50.811Z,14.20
2018-10-21T18:54:20.097Z,18.30
2018-10-21T18:56:49.649Z,14.58
2018-10-21T18:59:19.440Z,13.80
2018-10-21T19:01:48.914Z,14.97
2018-10-21T19:04:18.395Z,16.40
2018-10-21T19:06:48.121Z,14.30
2018-10-21T19:09:17.699Z,14.53
2018-10-21T19:11:46.960Z,14.17
2018-10-21T19:14:16.168Z,14.95
2018-10-21T19:16:45.437Z,14.60
2018-10-21T19:19:15.047Z,14.80
2018-10-21T19:21:44.901Z,16.23
2018-10-21T19:24:14.369Z,13.78
2018-10-21T19:26:43.971Z,16.33
2018-10-21T19:29:14.144Z,14.98
2018-10-21T19:31:43.418Z,17.23
2018-10-21T19:34:13.030Z,16.80
2018-10-21T19:36:42.479Z,17.07
2018-10-21T19:39:12.039Z,15.23
2018-10-21T19:41:41.308Z,18.10
2018-10-21T19:44:10.643Z,18.30
2018-10-21T19:46:39.908Z,19.50
2018-10-21T19:49:09.744Z,19.60
2018-10-21T19:51:40.185Z,20.27
2018-10-21T19:54:11.013Z,19.07
2018-10-21T19:56:40.276Z,18.07
2018-10-21T19:59:09.852Z,19.17
2018-10-21T20:01:39.121Z,21.10
2018-10-21T20:04:08.412Z,19.13
2018-10-21T20:06:38.225Z,19.77
2018-10-21T20:09:07.663Z,20.60
2018-10-21T20:11:36.932Z,19.93
2018-10-21T20:14:05.638Z,21.70
2018-10-21T20:16:35.106Z,21.57
2018-10-21T20:19:04.561Z,21.87
2018-10-21T20:21:33.732Z,22.70
2018-10-21T20:24:02.672Z,22.03
2018-10-21T20:26:31.373Z,19.80
2018-10-21T20:29:05.004Z,19.67
2018-10-21T20:31:34.272Z,20.53
2018-10-21T20:34:03.595Z,19.60
2018-10-21T20:36:33.059Z,19.33
2018-10-21T20:39:03.347Z,19.53
2018-10-21T20:41:33.036Z,19.33
2018-10-21T20:44:02.063Z,17.83
2018-10-21T20:46:31.268Z,20.47
2018-10-21T20:49:00.548Z,17.67
2018-10-21T20:51:30.125Z,18.53
2018-10-21T20:53:59.269Z,22.13
2018-10-21T20:56:29.026Z,20.70
2018-10-21T20:58:58.521Z,20.87
2018-10-21T21:01:27.843Z,21.65
2018-10-21T21:03:57.355Z,22.47
2018-10-21T21:06:27.057Z,21.50
2018-10-21T21:08:56.005Z,22.03
2018-10-21T21:11:25.560Z,22.63
2018-10-21T21:13:55.153Z,22.53
2018-10-21T21:16:24.421Z,20.23
2018-10-21T21:18:53.683Z,20.80
2018-10-21T21:21:23.252Z,21.17
2018-10-21T21:23:52.560Z,18.97
2018-10-21T21:26:22.389Z,21.20
2018-10-21T21:28:51.662Z,20.73
2018-10-21T21:31:21.221Z,21.55
2018-10-21T21:33:50.495Z,22.33
2018-10-21T21:36:20.107Z,23.85
2018-10-21T21:38:49.520Z,22.77
2018-10-21T21:41:19.275Z,25.47
2018-10-21T21:43:48.553Z,23.87
2018-10-21T21:46:18.364Z,22.25
2018-10-21T21:48:47.628Z,22.23
2018-10-21T21:51:17.191Z,20.80
2018-10-21T21:53:46.560Z,23.63
2018-10-21T21:56:16.450Z,23.25
2018-10-21T21:58:45.717Z,21.97
2018-10-21T22:01:15.338Z,22.27
2018-10-21T22:03:44.597Z,26.57
2018-10-21T22:06:13.835Z,22.60
2018-10-21T22:08:43.312Z,22.20
2018-10-21T22:11:12.564Z,22.95
2018-10-21T22:13:41.840Z,23.07
2018-10-21T22:16:11.603Z,23.10
2018-10-21T22:18:40.906Z,24.30
2018-10-21T22:21:10.469Z,22.40
2018-10-21T22:23:40.033Z,22.62
2018-10-21T22:26:09.603Z,25.70
2018-10-21T22:28:39.369Z,23.40
2018-10-21T22:31:08.651Z,21.20
2018-10-21T22:33:38.468Z,22.47
2018-10-21T22:36:08.688Z,22.90
2018-10-21T22:38:38.301Z,21.37
2018-10-21T22:41:08.566Z,21.95
2018-10-21T22:43:38.387Z,22.20
2018-10-21T22:46:08.848Z,22.48
2018-10-21T22:48:38.333Z,22.30
2018-10-21T22:51:08.332Z,26.45
2018-10-21T22:53:37.614Z,24.50
2018-10-21T22:56:06.289Z,21.63
2018-10-21T22:58:35.573Z,23.57
2018-10-21T23:01:04.279Z,22.43
2018-10-21T23:03:33.545Z,20.07
2018-10-21T23:06:02.584Z,23.93
2018-10-21T23:08:31.818Z,21.17
2018-10-21T23:11:00.796Z,22.50
2018-10-21T23:13:30.412Z,22.27
2018-10-21T23:15:59.672Z,19.87
2018-10-21T23:18:28.874Z,20.23
2018-10-21T23:20:58.625Z,19.87
2018-10-21T23:23:27.893Z,20.30
2018-10-21T23:25:57.434Z,20.37
2018-10-21T23:28:27.101Z,20.10
2018-10-21T23:30:56.419Z,20.73
2018-10-21T23:33:25.889Z,20.02
2018-10-21T23:35:55.442Z,22.30
2018-10-21T23:38:25.181Z,30.07
2018-10-21T23:40:54.635Z,22.00
2018-10-21T23:43:23.581Z,21.37
2018-10-21T23:45:52.524Z,21.30
2018-10-21T23:48:21.793Z,23.70
2018-10-21T23:50:50.730Z,27.90
2018-10-21T23:53:20.287Z,21.47
2018-10-21T23:55:49.229Z,23.30
2018-10-21T23:58:18.213Z,21.63
